Batang, China
Current Conditions -  °F | °C
As of 8:00 PM on Saturday 25 Oct 2014 (Local Time) from ZUUU Reporting Station
Haze Haze  
Wind Chill: 68°   Ceiling: Unl
Heat Index: 68°   Visibility: 2.8mi
Dew Point: 59°   Wind: 0mph
Humidity: 73%   Direction: NA
Pressure: 30.03"   Gusts: NA
Location:  30°N, 99.1°E
Report Text: ZUUU 251200Z 00000MPS 4500 BR FEW040 20/15 Q1017 NOSIG
Loading
Personal Weather Stations






























Interactive Weather Map
Tropical Storm Tracking
New forecast layout! Learn more

10-Day Weather Forecast

Advertisements
Track Severe Weather on mobile